sensor_id;sensor_type;location;lat;lon;timestamp;P1;durP1;ratioP1;P2;durP2;ratioP2
49582;SDS011;36329;48.816;44.624;2022-09-24T00:01:21;3.9;;;1.7;;
49582;SDS011;36329;48.816;44.624;2022-09-24T00:04:25;4.1;;;1.6;;
49582;SDS011;36329;48.816;44.624;2022-09-24T00:07:27;4.2;;;1.8;;
49582;SDS011;36329;48.816;44.624;2022-09-24T00:10:29;3.6;;;2;;
49582;SDS011;36329;48.816;44.624;2022-09-24T00:13:31;3.9;;;1.7;;
49582;SDS011;36329;48.816;44.624;2022-09-24T00:16:34;3.1;;;1.4;;
49582;SDS011;36329;48.816;44.624;2022-09-24T00:19:36;3;;;1.8;;
49582;SDS011;36329;48.816;44.624;2022-09-24T00:22:38;3.7;;;1.5;;
49582;SDS011;36329;48.816;44.624;2022-09-24T00:25:40;2.2;;;1.6;;
49582;SDS011;36329;48.816;44.624;2022-09-24T00:28:43;4.5;;;1.8;;
49582;SDS011;36329;48.816;44.624;2022-09-24T00:31:45;2.3;;;1.5;;
49582;SDS011;36329;48.816;44.624;2022-09-24T00:34:47;2.2;;;1.6;;
49582;SDS011;36329;48.816;44.624;2022-09-24T00:37:49;3;;;1.5;;
49582;SDS011;36329;48.816;44.624;2022-09-24T00:40:50;3.7;;;1.6;;
49582;SDS011;36329;48.816;44.624;2022-09-24T00:43:52;1.8;;;1.4;;
49582;SDS011;36329;48.816;44.624;2022-09-24T00:46:54;2.1;;;1.5;;
49582;SDS011;36329;48.816;44.624;2022-09-24T00:49:57;2.5;;;1.5;;
49582;SDS011;36329;48.816;44.624;2022-09-24T00:53:06;3.4;;;1.8;;
49582;SDS011;36329;48.816;44.624;2022-09-24T00:56:12;4.3;;;2;;
49582;SDS011;36329;48.816;44.624;2022-09-24T00:59:17;3.2;;;1.8;;
49582;SDS011;36329;48.816;44.624;2022-09-24T01:02:21;3.7;;;1.9;;
49582;SDS011;36329;48.816;44.624;2022-09-24T01:05:23;6;;;4;;
49582;SDS011;36329;48.816;44.624;2022-09-24T01:08:24;4.3;;;1.7;;
49582;SDS011;36329;48.816;44.624;2022-09-24T01:11:33;3;;;1.5;;
49582;SDS011;36329;48.816;44.624;2022-09-24T01:14:42;4.8;;;2;;
49582;SDS011;36329;48.816;44.624;2022-09-24T01:17:53;2.8;;;1.6;;
49582;SDS011;36329;48.816;44.624;2022-09-24T01:21:09;4.7;;;2;;
49582;SDS011;36329;48.816;44.624;2022-09-24T01:24:25;2.9;;;1.5;;
49582;SDS011;36329;48.816;44.624;2022-09-24T01:27:40;4.7;;;1.5;;
49582;SDS011;36329;48.816;44.624;2022-09-24T01:30:47;7.2;;;1.8;;
49582;SDS011;36329;48.816;44.624;2022-09-24T01:33:55;5;;;2.1;;
49582;SDS011;36329;48.816;44.624;2022-09-24T01:36:59;2.4;;;1.3;;
49582;SDS011;36329;48.816;44.624;2022-09-24T01:40:03;1.9;;;1.2;;
49582;SDS011;36329;48.816;44.624;2022-09-24T01:43:07;2.1;;;1.4;;
49582;SDS011;36329;48.816;44.624;2022-09-24T01:46:11;3.3;;;1.2;;
49582;SDS011;36329;48.816;44.624;2022-09-24T01:49:13;1.5;;;1.3;;
49582;SDS011;36329;48.816;44.624;2022-09-24T01:52:15;1.8;;;1.4;;
49582;SDS011;36329;48.816;44.624;2022-09-24T01:55:23;2.1;;;1.4;;
49582;SDS011;36329;48.816;44.624;2022-09-24T01:58:28;3;;;1.2;;
49582;SDS011;36329;48.816;44.624;2022-09-24T02:01:33;1.7;;;1.1;;
49582;SDS011;36329;48.816;44.624;2022-09-24T02:04:40;2.2;;;1.4;;
49582;SDS011;36329;48.816;44.624;2022-09-24T02:07:49;2.4;;;1.5;;
49582;SDS011;36329;48.816;44.624;2022-09-24T02:10:58;2;;;1.4;;
49582;SDS011;36329;48.816;44.624;2022-09-24T02:14:05;2.2;;;1.3;;
49582;SDS011;36329;48.816;44.624;2022-09-24T02:17:12;1.6;;;1.2;;
49582;SDS011;36329;48.816;44.624;2022-09-24T02:20:15;1.4;;;1.1;;
49582;SDS011;36329;48.816;44.624;2022-09-24T02:23:22;2.5;;;1.5;;
49582;SDS011;36329;48.816;44.624;2022-09-24T02:26:28;2;;;1.4;;
49582;SDS011;36329;48.816;44.624;2022-09-24T02:29:30;2.1;;;1.3;;
49582;SDS011;36329;48.816;44.624;2022-09-24T02:32:31;1.6;;;1.2;;
49582;SDS011;36329;48.816;44.624;2022-09-24T02:35:36;2.2;;;1.4;;
49582;SDS011;36329;48.816;44.624;2022-09-24T02:38:37;2.3;;;1.3;;
49582;SDS011;36329;48.816;44.624;2022-09-24T02:41:39;2.6;;;1.5;;
49582;SDS011;36329;48.816;44.624;2022-09-24T02:44:41;2.2;;;1.3;;
49582;SDS011;36329;48.816;44.624;2022-09-24T02:47:42;2.4;;;1.4;;
49582;SDS011;36329;48.816;44.624;2022-09-24T02:50:44;2.8;;;1.6;;
49582;SDS011;36329;48.816;44.624;2022-09-24T02:53:46;7.4;;;1.9;;
49582;SDS011;36329;48.816;44.624;2022-09-24T02:56:47;1.7;;;1.3;;
49582;SDS011;36329;48.816;44.624;2022-09-24T02:59:49;2.6;;;1.7;;
49582;SDS011;36329;48.816;44.624;2022-09-24T03:02:51;3.9;;;1.7;;
49582;SDS011;36329;48.816;44.624;2022-09-24T03:05:52;2.7;;;1.6;;
49582;SDS011;36329;48.816;44.624;2022-09-24T03:08:54;3;;;1.7;;
49582;SDS011;36329;48.816;44.624;2022-09-24T03:11:56;2.4;;;1.6;;
49582;SDS011;36329;48.816;44.624;2022-09-24T03:14:57;2;;;1.6;;
49582;SDS011;36329;48.816;44.624;2022-09-24T03:17:59;3.6;;;1.4;;
49582;SDS011;36329;48.816;44.624;2022-09-24T03:21:02;2.2;;;1.6;;
49582;SDS011;36329;48.816;44.624;2022-09-24T03:24:05;2.5;;;1.6;;
49582;SDS011;36329;48.816;44.624;2022-09-24T03:27:07;2.1;;;1.5;;
49582;SDS011;36329;48.816;44.624;2022-09-24T03:30:09;4.7;;;1.9;;
49582;SDS011;36329;48.816;44.624;2022-09-24T03:33:11;4.4;;;1.7;;
49582;SDS011;36329;48.816;44.624;2022-09-24T03:36:13;4.2;;;1.8;;
49582;SDS011;36329;48.816;44.624;2022-09-24T03:39:17;5;;;2.1;;
49582;SDS011;36329;48.816;44.624;2022-09-24T03:42:18;2.9;;;1.7;;
49582;SDS011;36329;48.816;44.624;2022-09-24T03:45:20;2.4;;;1.6;;
49582;SDS011;36329;48.816;44.624;2022-09-24T03:48:22;3.1;;;1.6;;
49582;SDS011;36329;48.816;44.624;2022-09-24T03:51:25;1.9;;;1.5;;
49582;SDS011;36329;48.816;44.624;2022-09-24T03:54:26;2.1;;;1.4;;
49582;SDS011;36329;48.816;44.624;2022-09-24T03:57:28;3.9;;;1.5;;
49582;SDS011;36329;48.816;44.624;2022-09-24T04:00:29;4.3;;;1.4;;
49582;SDS011;36329;48.816;44.624;2022-09-24T04:03:31;3.2;;;1.5;;
49582;SDS011;36329;48.816;44.624;2022-09-24T04:06:32;1.9;;;1.5;;
49582;SDS011;36329;48.816;44.624;2022-09-24T04:09:34;3.6;;;1.4;;
49582;SDS011;36329;48.816;44.624;2022-09-24T04:12:36;2.8;;;1.4;;
49582;SDS011;36329;48.816;44.624;2022-09-24T04:15:37;3;;;1.6;;
49582;SDS011;36329;48.816;44.624;2022-09-24T04:18:39;3.3;;;1.5;;
49582;SDS011;36329;48.816;44.624;2022-09-24T04:21:40;2.3;;;1.6;;
49582;SDS011;36329;48.816;44.624;2022-09-24T04:24:42;3;;;1.4;;
49582;SDS011;36329;48.816;44.624;2022-09-24T04:27:44;2.2;;;1.4;;
49582;SDS011;36329;48.816;44.624;2022-09-24T04:30:46;2.5;;;1.4;;
49582;SDS011;36329;48.816;44.624;2022-09-24T04:33:48;2;;;1.5;;
49582;SDS011;36329;48.816;44.624;2022-09-24T04:36:49;2.4;;;1.4;;
49582;SDS011;36329;48.816;44.624;2022-09-24T04:39:51;2.7;;;1.5;;
49582;SDS011;36329;48.816;44.624;2022-09-24T04:42:53;4.4;;;1.6;;
49582;SDS011;36329;48.816;44.624;2022-09-24T04:45:55;3.3;;;1.9;;
49582;SDS011;36329;48.816;44.624;2022-09-24T04:48:57;3.9;;;1.6;;
49582;SDS011;36329;48.816;44.624;2022-09-24T04:51:58;3.1;;;1.6;;
49582;SDS011;36329;48.816;44.624;2022-09-24T04:55:00;5.3;;;2.3;;
49582;SDS011;36329;48.816;44.624;2022-09-24T04:58:02;2.8;;;1.8;;
49582;SDS011;36329;48.816;44.624;2022-09-24T05:01:04;4;;;1.5;;
49582;SDS011;36329;48.816;44.624;2022-09-24T05:04:05;4.3;;;2;;
49582;SDS011;36329;48.816;44.624;2022-09-24T05:07:07;5.2;;;2.1;;
49582;SDS011;36329;48.816;44.624;2022-09-24T05:10:09;3.1;;;1.8;;
49582;SDS011;36329;48.816;44.624;2022-09-24T05:13:15;3.9;;;1.8;;
49582;SDS011;36329;48.816;44.624;2022-09-24T05:16:18;3.5;;;2;;
49582;SDS011;36329;48.816;44.624;2022-09-24T05:19:20;2.6;;;1.7;;
49582;SDS011;36329;48.816;44.624;2022-09-24T05:22:24;3.4;;;1.7;;
49582;SDS011;36329;48.816;44.624;2022-09-24T05:25:26;2.9;;;1.6;;
49582;SDS011;36329;48.816;44.624;2022-09-24T05:28:28;3.7;;;2.5;;
49582;SDS011;36329;48.816;44.624;2022-09-24T05:31:30;2.5;;;1.6;;
49582;SDS011;36329;48.816;44.624;2022-09-24T05:34:32;3.8;;;1.6;;
49582;SDS011;36329;48.816;44.624;2022-09-24T05:37:34;1.7;;;1.5;;
49582;SDS011;36329;48.816;44.624;2022-09-24T05:40:37;2.7;;;1.6;;
49582;SDS011;36329;48.816;44.624;2022-09-24T05:43:38;6.9;;;1.8;;
49582;SDS011;36329;48.816;44.624;2022-09-24T05:46:40;8.1;;;1.9;;
49582;SDS011;36329;48.816;44.624;2022-09-24T05:49:41;4.7;;;1.5;;
49582;SDS011;36329;48.816;44.624;2022-09-24T05:52:43;5;;;1.8;;
49582;SDS011;36329;48.816;44.624;2022-09-24T05:55:44;4;;;1.3;;
49582;SDS011;36329;48.816;44.624;2022-09-24T05:58:47;3.9;;;1.4;;
49582;SDS011;36329;48.816;44.624;2022-09-24T06:01:49;5.4;;;1.5;;
49582;SDS011;36329;48.816;44.624;2022-09-24T06:04:50;3.7;;;1.4;;
49582;SDS011;36329;48.816;44.624;2022-09-24T06:07:52;2.9;;;1.2;;
49582;SDS011;36329;48.816;44.624;2022-09-24T06:10:57;3.7;;;1.4;;
49582;SDS011;36329;48.816;44.624;2022-09-24T06:13:59;2.9;;;1.4;;
49582;SDS011;36329;48.816;44.624;2022-09-24T06:17:02;4.8;;;1.4;;
49582;SDS011;36329;48.816;44.624;2022-09-24T06:20:03;3.3;;;2;;
49582;SDS011;36329;48.816;44.624;2022-09-24T06:23:05;3.5;;;1.4;;
49582;SDS011;36329;48.816;44.624;2022-09-24T06:26:09;3.7;;;1.3;;
49582;SDS011;36329;48.816;44.624;2022-09-24T06:29:13;4.4;;;1.3;;
49582;SDS011;36329;48.816;44.624;2022-09-24T06:32:15;3.1;;;1.4;;
49582;SDS011;36329;48.816;44.624;2022-09-24T06:35:16;3.7;;;1.5;;
49582;SDS011;36329;48.816;44.624;2022-09-24T06:38:18;3.2;;;1.3;;
49582;SDS011;36329;48.816;44.624;2022-09-24T06:41:20;3.9;;;1.3;;
49582;SDS011;36329;48.816;44.624;2022-09-24T06:44:22;4.4;;;1.4;;
49582;SDS011;36329;48.816;44.624;2022-09-24T06:47:23;2.3;;;1.1;;
49582;SDS011;36329;48.816;44.624;2022-09-24T06:50:25;3.6;;;1.3;;
49582;SDS011;36329;48.816;44.624;2022-09-24T06:53:28;4.7;;;1.2;;
49582;SDS011;36329;48.816;44.624;2022-09-24T06:56:30;4.6;;;1.1;;
49582;SDS011;36329;48.816;44.624;2022-09-24T06:59:31;3.3;;;1.2;;
49582;SDS011;36329;48.816;44.624;2022-09-24T07:02:33;4.1;;;1.3;;
49582;SDS011;36329;48.816;44.624;2022-09-24T07:05:34;3.1;;;1;;
49582;SDS011;36329;48.816;44.624;2022-09-24T07:08:36;5.9;;;1.2;;
49582;SDS011;36329;48.816;44.624;2022-09-24T07:11:38;4.2;;;1.3;;
49582;SDS011;36329;48.816;44.624;2022-09-24T07:14:39;4.6;;;1.2;;
49582;SDS011;36329;48.816;44.624;2022-09-24T07:17:41;3.9;;;1.3;;
49582;SDS011;36329;48.816;44.624;2022-09-24T07:20:42;5.3;;;1.4;;
49582;SDS011;36329;48.816;44.624;2022-09-24T07:23:44;3;;;1.4;;
49582;SDS011;36329;48.816;44.624;2022-09-24T07:26:46;2.6;;;1.3;;
49582;SDS011;36329;48.816;44.624;2022-09-24T07:29:48;2.9;;;1.4;;
49582;SDS011;36329;48.816;44.624;2022-09-24T07:32:53;3.8;;;1.3;;
49582;SDS011;36329;48.816;44.624;2022-09-24T07:35:55;4;;;1.3;;
49582;SDS011;36329;48.816;44.624;2022-09-24T07:38:56;2.6;;;1.3;;
49582;SDS011;36329;48.816;44.624;2022-09-24T07:41:58;2.5;;;1.4;;
49582;SDS011;36329;48.816;44.624;2022-09-24T07:45:00;3.5;;;1.7;;
49582;SDS011;36329;48.816;44.624;2022-09-24T07:48:02;5.1;;;1.9;;
49582;SDS011;36329;48.816;44.624;2022-09-24T07:51:08;4.1;;;1.9;;
49582;SDS011;36329;48.816;44.624;2022-09-24T07:54:10;4.3;;;1.7;;
49582;SDS011;36329;48.816;44.624;2022-09-24T07:57:12;4.1;;;1.6;;
49582;SDS011;36329;48.816;44.624;2022-09-24T08:00:14;4.9;;;1.8;;
49582;SDS011;36329;48.816;44.624;2022-09-24T08:03:17;4.4;;;2.1;;
49582;SDS011;36329;48.816;44.624;2022-09-24T08:06:18;3.8;;;1.9;;
49582;SDS011;36329;48.816;44.624;2022-09-24T08:09:21;7.7;;;1.8;;
49582;SDS011;36329;48.816;44.624;2022-09-24T08:12:23;4.3;;;1.6;;
49582;SDS011;36329;48.816;44.624;2022-09-24T08:15:25;3.4;;;1.5;;
49582;SDS011;36329;48.816;44.624;2022-09-24T08:18:28;3.8;;;1.4;;
49582;SDS011;36329;48.816;44.624;2022-09-24T08:21:30;4.7;;;1.7;;
49582;SDS011;36329;48.816;44.624;2022-09-24T08:24:31;5.2;;;1.7;;
49582;SDS011;36329;48.816;44.624;2022-09-24T08:27:33;6;;;2.3;;
49582;SDS011;36329;48.816;44.624;2022-09-24T08:30:35;3.6;;;2;;
49582;SDS011;36329;48.816;44.624;2022-09-24T08:33:38;6.9;;;2;;
49582;SDS011;36329;48.816;44.624;2022-09-24T08:36:40;4;;;2.2;;
49582;SDS011;36329;48.816;44.624;2022-09-24T08:39:42;4.5;;;2.3;;
49582;SDS011;36329;48.816;44.624;2022-09-24T08:42:45;5.1;;;2.1;;
49582;SDS011;36329;48.816;44.624;2022-09-24T08:45:53;4.7;;;1.9;;
49582;SDS011;36329;48.816;44.624;2022-09-24T08:48:58;5.5;;;1.7;;
49582;SDS011;36329;48.816;44.624;2022-09-24T08:52:18;4.6;;;1.8;;
49582;SDS011;36329;48.816;44.624;2022-09-24T08:55:28;3.7;;;1.9;;
49582;SDS011;36329;48.816;44.624;2022-09-24T08:58:36;5.4;;;2;;
49582;SDS011;36329;48.816;44.624;2022-09-24T09:01:47;7.3;;;2.5;;
49582;SDS011;36329;48.816;44.624;2022-09-24T09:04:58;4.8;;;1.9;;
49582;SDS011;36329;48.816;44.624;2022-09-24T09:08:10;3.7;;;1.7;;
49582;SDS011;36329;48.816;44.624;2022-09-24T09:11:16;4.3;;;1.7;;
49582;SDS011;36329;48.816;44.624;2022-09-24T09:14:23;3.9;;;2.2;;
49582;SDS011;36329;48.816;44.624;2022-09-24T09:17:34;5;;;1.8;;
49582;SDS011;36329;48.816;44.624;2022-09-24T09:20:41;3;;;1.8;;
49582;SDS011;36329;48.816;44.624;2022-09-24T09:23:46;6.3;;;2.4;;
49582;SDS011;36329;48.816;44.624;2022-09-24T09:26:50;5.1;;;2;;
49582;SDS011;36329;48.816;44.624;2022-09-24T09:29:55;5.5;;;2.3;;
49582;SDS011;36329;48.816;44.624;2022-09-24T09:33:03;7.2;;;2.2;;
49582;SDS011;36329;48.816;44.624;2022-09-24T09:36:25;6.1;;;2.2;;
49582;SDS011;36329;48.816;44.624;2022-09-24T09:39:39;3.9;;;1.9;;
49582;SDS011;36329;48.816;44.624;2022-09-24T09:42:48;4.2;;;1.8;;
49582;SDS011;36329;48.816;44.624;2022-09-24T09:45:54;3.7;;;2.1;;
49582;SDS011;36329;48.816;44.624;2022-09-24T09:49:01;5.3;;;2.1;;
49582;SDS011;36329;48.816;44.624;2022-09-24T09:52:10;4.5;;;2.1;;
49582;SDS011;36329;48.816;44.624;2022-09-24T09:55:20;5.2;;;2.1;;
49582;SDS011;36329;48.816;44.624;2022-09-24T09:58:24;4.2;;;2.4;;
49582;SDS011;36329;48.816;44.624;2022-09-24T10:01:29;7.8;;;2.2;;
49582;SDS011;36329;48.816;44.624;2022-09-24T10:04:35;5;;;2.3;;
49582;SDS011;36329;48.816;44.624;2022-09-24T10:07:43;5.1;;;2.2;;
49582;SDS011;36329;48.816;44.624;2022-09-24T10:10:51;6;;;2.3;;
49582;SDS011;36329;48.816;44.624;2022-09-24T10:14:00;6.9;;;2.3;;
49582;SDS011;36329;48.816;44.624;2022-09-24T10:17:02;5.5;;;2;;
49582;SDS011;36329;48.816;44.624;2022-09-24T10:20:07;3.8;;;1.9;;
49582;SDS011;36329;48.816;44.624;2022-09-24T10:23:16;6.2;;;2.5;;
49582;SDS011;36329;48.816;44.624;2022-09-24T10:26:21;5.7;;;2.2;;
49582;SDS011;36329;48.816;44.624;2022-09-24T10:29:34;5.4;;;2.3;;
49582;SDS011;36329;48.816;44.624;2022-09-24T10:32:35;4.6;;;2.6;;
49582;SDS011;36329;48.816;44.624;2022-09-24T10:35:37;5.1;;;2.4;;
49582;SDS011;36329;48.816;44.624;2022-09-24T10:38:39;7.7;;;2.7;;
49582;SDS011;36329;48.816;44.624;2022-09-24T10:41:45;8.1;;;2.4;;
49582;SDS011;36329;48.816;44.624;2022-09-24T10:44:47;8.1;;;2.5;;
49582;SDS011;36329;48.816;44.624;2022-09-24T10:47:49;6.7;;;2.6;;
49582;SDS011;36329;48.816;44.624;2022-09-24T10:50:59;5.6;;;2.4;;
49582;SDS011;36329;48.816;44.624;2022-09-24T10:54:14;4.9;;;2.5;;
49582;SDS011;36329;48.816;44.624;2022-09-24T10:57:29;9.6;;;2.7;;
49582;SDS011;36329;48.816;44.624;2022-09-24T11:00:37;6.5;;;2.6;;
49582;SDS011;36329;48.816;44.624;2022-09-24T11:03:45;4.4;;;2.5;;
49582;SDS011;36329;48.816;44.624;2022-09-24T11:07:07;6;;;2.5;;
49582;SDS011;36329;48.816;44.624;2022-09-24T11:10:30;5.1;;;2.3;;
49582;SDS011;36329;48.816;44.624;2022-09-24T11:13:47;5;;;2.6;;
49582;SDS011;36329;48.816;44.624;2022-09-24T11:16:59;4.6;;;2.7;;
49582;SDS011;36329;48.816;44.624;2022-09-24T11:20:15;7.7;;;2.8;;
49582;SDS011;36329;48.816;44.624;2022-09-24T11:23:25;5.5;;;2.7;;
49582;SDS011;36329;48.816;44.624;2022-09-24T11:26:40;7.2;;;2.6;;
49582;SDS011;36329;48.816;44.624;2022-09-24T11:29:53;3.6;;;2.1;;
49582;SDS011;36329;48.816;44.624;2022-09-24T11:33:12;3.9;;;2.6;;
49582;SDS011;36329;48.816;44.624;2022-09-24T11:36:27;4.3;;;2.3;;
49582;SDS011;36329;48.816;44.624;2022-09-24T11:39:39;3.5;;;2;;
49582;SDS011;36329;48.816;44.624;2022-09-24T11:42:51;4.2;;;2.3;;
49582;SDS011;36329;48.816;44.624;2022-09-24T11:46:10;4.3;;;2.4;;
49582;SDS011;36329;48.816;44.624;2022-09-24T11:49:25;5.3;;;2.3;;
49582;SDS011;36329;48.816;44.624;2022-09-24T11:52:34;4.6;;;2.4;;
49582;SDS011;36329;48.816;44.624;2022-09-24T11:55:40;4.7;;;2.2;;
49582;SDS011;36329;48.816;44.624;2022-09-24T11:58:49;3.7;;;2.4;;
49582;SDS011;36329;48.816;44.624;2022-09-24T12:01:58;4.4;;;2.3;;
49582;SDS011;36329;48.816;44.624;2022-09-24T12:05:06;6.6;;;2.5;;
49582;SDS011;36329;48.816;44.624;2022-09-24T12:08:15;5.8;;;2.5;;
49582;SDS011;36329;48.816;44.624;2022-09-24T12:11:21;5.4;;;2.6;;
49582;SDS011;36329;48.816;44.624;2022-09-24T12:14:28;3.4;;;2.3;;
49582;SDS011;36329;48.816;44.624;2022-09-24T12:17:40;4.1;;;2.5;;
49582;SDS011;36329;48.816;44.624;2022-09-24T12:20:48;4.3;;;2.5;;
49582;SDS011;36329;48.816;44.624;2022-09-24T12:23:53;3.4;;;2.1;;
49582;SDS011;36329;48.816;44.624;2022-09-24T12:27:01;3.9;;;2;;
49582;SDS011;36329;48.816;44.624;2022-09-24T12:30:14;3.5;;;2.1;;
49582;SDS011;36329;48.816;44.624;2022-09-24T12:33:26;3.2;;;2.1;;
49582;SDS011;36329;48.816;44.624;2022-09-24T12:36:37;3.8;;;2;;
49582;SDS011;36329;48.816;44.624;2022-09-24T12:39:52;4.3;;;2.3;;
49582;SDS011;36329;48.816;44.624;2022-09-24T12:43:02;4.6;;;2.4;;
49582;SDS011;36329;48.816;44.624;2022-09-24T12:46:14;4.2;;;2.4;;
49582;SDS011;36329;48.816;44.624;2022-09-24T12:49:21;3.9;;;2.5;;
49582;SDS011;36329;48.816;44.624;2022-09-24T12:52:31;6.3;;;2.5;;
49582;SDS011;36329;48.816;44.624;2022-09-24T12:55:38;3.5;;;2.2;;
49582;SDS011;36329;48.816;44.624;2022-09-24T12:58:46;3.8;;;2.4;;
49582;SDS011;36329;48.816;44.624;2022-09-24T13:01:48;3.7;;;2.2;;
49582;SDS011;36329;48.816;44.624;2022-09-24T13:04:50;6.6;;;2.7;;
49582;SDS011;36329;48.816;44.624;2022-09-24T13:11:27;3.9;;;2.3;;
49582;SDS011;36329;48.816;44.624;2022-09-24T13:14:31;10;;;2.5;;
49582;SDS011;36329;48.816;44.624;2022-09-24T13:17:34;4.2;;;2;;
49582;SDS011;36329;48.816;44.624;2022-09-24T13:20:39;3.8;;;2.2;;
49582;SDS011;36329;48.816;44.624;2022-09-24T13:23:43;3.4;;;2.2;;
49582;SDS011;36329;48.816;44.624;2022-09-24T13:26:47;3.6;;;2.3;;
49582;SDS011;36329;48.816;44.624;2022-09-24T13:29:59;3.6;;;2.2;;
49582;SDS011;36329;48.816;44.624;2022-09-24T13:33:12;3.2;;;2.2;;
49582;SDS011;36329;48.816;44.624;2022-09-24T13:36:21;3.3;;;2.4;;
49582;SDS011;36329;48.816;44.624;2022-09-24T13:39:32;3.9;;;2.2;;
49582;SDS011;36329;48.816;44.624;2022-09-24T13:42:44;5.1;;;2.3;;
49582;SDS011;36329;48.816;44.624;2022-09-24T13:45:50;3.4;;;2.4;;
49582;SDS011;36329;48.816;44.624;2022-09-24T13:48:55;4.2;;;2.7;;
49582;SDS011;36329;48.816;44.624;2022-09-24T13:52:06;3.1;;;2.4;;
49582;SDS011;36329;48.816;44.624;2022-09-24T13:55:16;5.1;;;2.5;;
49582;SDS011;36329;48.816;44.624;2022-09-24T13:58:26;4.5;;;2.6;;
49582;SDS011;36329;48.816;44.624;2022-09-24T14:01:29;3.4;;;2.5;;
49582;SDS011;36329;48.816;44.624;2022-09-24T14:04:37;4.3;;;2.6;;
49582;SDS011;36329;48.816;44.624;2022-09-24T14:07:39;4.5;;;2.7;;
49582;SDS011;36329;48.816;44.624;2022-09-24T14:10:41;4.2;;;2.9;;
49582;SDS011;36329;48.816;44.624;2022-09-24T14:13:43;4.1;;;2.9;;
49582;SDS011;36329;48.816;44.624;2022-09-24T14:16:45;6.3;;;3;;
49582;SDS011;36329;48.816;44.624;2022-09-24T14:19:47;6.3;;;3.1;;
49582;SDS011;36329;48.816;44.624;2022-09-24T14:22:55;4.1;;;3;;
49582;SDS011;36329;48.816;44.624;2022-09-24T14:25:57;4.9;;;2.9;;
49582;SDS011;36329;48.816;44.624;2022-09-24T14:29:02;4.4;;;3;;
49582;SDS011;36329;48.816;44.624;2022-09-24T14:32:16;4.4;;;2.9;;
49582;SDS011;36329;48.816;44.624;2022-09-24T14:35:25;3.8;;;2.9;;
49582;SDS011;36329;48.816;44.624;2022-09-24T14:38:31;5;;;3.1;;
49582;SDS011;36329;48.816;44.624;2022-09-24T14:41:35;4.3;;;3.4;;
49582;SDS011;36329;48.816;44.624;2022-09-24T14:44:37;4.1;;;3.1;;
49582;SDS011;36329;48.816;44.624;2022-09-24T14:47:42;4.8;;;3.1;;
49582;SDS011;36329;48.816;44.624;2022-09-24T14:50:44;4.8;;;3;;
49582;SDS011;36329;48.816;44.624;2022-09-24T14:53:46;3.7;;;2.8;;
49582;SDS011;36329;48.816;44.624;2022-09-24T15:00:24;4.9;;;3.1;;
49582;SDS011;36329;48.816;44.624;2022-09-24T15:03:28;5.5;;;3.3;;
49582;SDS011;36329;48.816;44.624;2022-09-24T15:06:35;6.4;;;3.5;;
49582;SDS011;36329;48.816;44.624;2022-09-24T15:09:38;5.1;;;3.3;;
49582;SDS011;36329;48.816;44.624;2022-09-24T15:12:43;4.4;;;3.2;;
49582;SDS011;36329;48.816;44.624;2022-09-24T15:15:45;6.1;;;3.4;;
49582;SDS011;36329;48.816;44.624;2022-09-24T15:18:49;6.8;;;2.9;;
49582;SDS011;36329;48.816;44.624;2022-09-24T15:21:58;4.7;;;3.6;;
49582;SDS011;36329;48.816;44.624;2022-09-24T15:25:00;5.1;;;3.2;;
49582;SDS011;36329;48.816;44.624;2022-09-24T15:28:02;4.7;;;3.7;;
49582;SDS011;36329;48.816;44.624;2022-09-24T15:31:03;7.1;;;3.5;;
49582;SDS011;36329;48.816;44.624;2022-09-24T15:34:05;5.9;;;3.5;;
49582;SDS011;36329;48.816;44.624;2022-09-24T15:37:07;6.5;;;4.3;;
49582;SDS011;36329;48.816;44.624;2022-09-24T15:40:15;7.8;;;4.4;;
49582;SDS011;36329;48.816;44.624;2022-09-24T15:43:21;6.3;;;4.5;;
49582;SDS011;36329;48.816;44.624;2022-09-24T15:46:24;8.3;;;4.2;;
49582;SDS011;36329;48.816;44.624;2022-09-24T15:49:27;7;;;4.2;;
49582;SDS011;36329;48.816;44.624;2022-09-24T15:52:28;6.7;;;3.8;;
49582;SDS011;36329;48.816;44.624;2022-09-24T15:55:33;6.7;;;3.9;;
49582;SDS011;36329;48.816;44.624;2022-09-24T15:58:36;7.3;;;4;;
49582;SDS011;36329;48.816;44.624;2022-09-24T16:01:38;8.5;;;4.3;;
49582;SDS011;36329;48.816;44.624;2022-09-24T16:04:40;6.2;;;4.1;;
49582;SDS011;36329;48.816;44.624;2022-09-24T16:07:42;7.2;;;3.8;;
49582;SDS011;36329;48.816;44.624;2022-09-24T16:10:45;6.8;;;3.7;;
49582;SDS011;36329;48.816;44.624;2022-09-24T16:13:48;8.5;;;3.9;;
49582;SDS011;36329;48.816;44.624;2022-09-24T16:16:50;4.7;;;3.2;;
49582;SDS011;36329;48.816;44.624;2022-09-24T16:19:53;5.9;;;3.1;;
49582;SDS011;36329;48.816;44.624;2022-09-24T16:22:55;4.1;;;2.8;;
49582;SDS011;36329;48.816;44.624;2022-09-24T16:25:57;3.7;;;1.7;;
49582;SDS011;36329;48.816;44.624;2022-09-24T16:29:01;1.6;;;1.2;;
49582;SDS011;36329;48.816;44.624;2022-09-24T16:32:03;2.3;;;1.2;;
49582;SDS011;36329;48.816;44.624;2022-09-24T16:35:06;1.8;;;1.3;;
49582;SDS011;36329;48.816;44.624;2022-09-24T16:38:08;2.1;;;1.4;;
49582;SDS011;36329;48.816;44.624;2022-09-24T16:41:10;3.5;;;1.7;;
49582;SDS011;36329;48.816;44.624;2022-09-24T16:44:12;2.2;;;1.8;;
49582;SDS011;36329;48.816;44.624;2022-09-24T16:47:14;5.1;;;2;;
49582;SDS011;36329;48.816;44.624;2022-09-24T16:50:16;3.1;;;1.9;;
49582;SDS011;36329;48.816;44.624;2022-09-24T16:53:17;2.9;;;2.2;;
49582;SDS011;36329;48.816;44.624;2022-09-24T16:56:19;3.7;;;2.2;;
49582;SDS011;36329;48.816;44.624;2022-09-24T16:59:20;3;;;2.2;;
49582;SDS011;36329;48.816;44.624;2022-09-24T17:02:22;3.7;;;2.2;;
49582;SDS011;36329;48.816;44.624;2022-09-24T17:05:23;3.6;;;2.3;;
49582;SDS011;36329;48.816;44.624;2022-09-24T17:08:25;3.2;;;2.1;;
49582;SDS011;36329;48.816;44.624;2022-09-24T17:11:27;3.1;;;1.9;;
49582;SDS011;36329;48.816;44.624;2022-09-24T17:14:28;2.2;;;1.8;;
49582;SDS011;36329;48.816;44.624;2022-09-24T17:17:30;2.5;;;2;;
49582;SDS011;36329;48.816;44.624;2022-09-24T17:23:34;2.7;;;2.2;;
49582;SDS011;36329;48.816;44.624;2022-09-24T17:26:36;3.4;;;1.9;;
49582;SDS011;36329;48.816;44.624;2022-09-24T17:29:37;2.6;;;1.8;;
49582;SDS011;36329;48.816;44.624;2022-09-24T17:32:39;2.4;;;1.9;;
49582;SDS011;36329;48.816;44.624;2022-09-24T17:35:41;3.5;;;2.1;;
49582;SDS011;36329;48.816;44.624;2022-09-24T17:38:42;3.8;;;1.8;;
49582;SDS011;36329;48.816;44.624;2022-09-24T17:41:44;4.7;;;2;;
49582;SDS011;36329;48.816;44.624;2022-09-24T17:44:46;2.8;;;1.8;;
49582;SDS011;36329;48.816;44.624;2022-09-24T17:47:48;3.1;;;1.8;;
49582;SDS011;36329;48.816;44.624;2022-09-24T17:50:53;2.2;;;1.6;;
49582;SDS011;36329;48.816;44.624;2022-09-24T17:53:57;2.2;;;1.5;;
49582;SDS011;36329;48.816;44.624;2022-09-24T17:57:00;1.8;;;1.5;;
49582;SDS011;36329;48.816;44.624;2022-09-24T18:00:02;1.8;;;1.2;;
49582;SDS011;36329;48.816;44.624;2022-09-24T18:03:04;2.7;;;1.6;;
49582;SDS011;36329;48.816;44.624;2022-09-24T18:06:07;2.1;;;1.6;;
49582;SDS011;36329;48.816;44.624;2022-09-24T18:09:11;2.9;;;1.7;;
49582;SDS011;36329;48.816;44.624;2022-09-24T18:12:13;4.8;;;2.4;;
49582;SDS011;36329;48.816;44.624;2022-09-24T18:15:15;8.6;;;4.8;;
49582;SDS011;36329;48.816;44.624;2022-09-24T18:18:17;15.2;;;7.6;;
49582;SDS011;36329;48.816;44.624;2022-09-24T18:21:19;15.3;;;7;;
49582;SDS011;36329;48.816;44.624;2022-09-24T18:24:24;15.8;;;9;;
49582;SDS011;36329;48.816;44.624;2022-09-24T18:27:26;15.3;;;7.7;;
49582;SDS011;36329;48.816;44.624;2022-09-24T18:30:27;11.5;;;6.6;;
49582;SDS011;36329;48.816;44.624;2022-09-24T18:33:29;7.8;;;4.1;;
49582;SDS011;36329;48.816;44.624;2022-09-24T18:36:32;5.4;;;3.3;;
49582;SDS011;36329;48.816;44.624;2022-09-24T18:39:35;4.3;;;2.6;;
49582;SDS011;36329;48.816;44.624;2022-09-24T18:42:37;3.3;;;2;;
49582;SDS011;36329;48.816;44.624;2022-09-24T18:45:38;5.7;;;3;;
49582;SDS011;36329;48.816;44.624;2022-09-24T18:48:41;4.6;;;2.9;;
49582;SDS011;36329;48.816;44.624;2022-09-24T18:51:44;4.6;;;2.5;;
49582;SDS011;36329;48.816;44.624;2022-09-24T18:54:46;3;;;1.9;;
49582;SDS011;36329;48.816;44.624;2022-09-24T18:57:48;2.9;;;1.5;;
49582;SDS011;36329;48.816;44.624;2022-09-24T19:00:50;3;;;1.7;;
49582;SDS011;36329;48.816;44.624;2022-09-24T19:03:58;4.1;;;1.6;;